<?xml version="1.0" encoding="UTF-8" standalone="no" ?>
<gpx xmlns="http://www.topografix.com/GPX/1/1" xmlns:xsi="http://www.w3.org/2001/XMLSchema-instance" xsi:schemaLocation="http://www.topografix.com/GPX/1/1 http://www.topografix.com/GPX/1/1/gpx.xsd" version="1.1" creator="VisuGPX - https://www.visugpx.com">
  <metadata>
    <name>COURGENT CIVRY LA FORET DAMMARTIN EN SERVE</name>
    <desc><![CDATA[FAIT]]></desc>
  </metadata>
  <trk>
    <name><![CDATA[Courgent-Civry-la-Forêt-Dammartin-en-Serve-17083579]]></name>
    <trkseg>
      <trkpt lat="48.89383" lon="1.65919">
        <ele>66</ele>
        <time>2023-06-30T13:43:07Z</time>
      </trkpt>
      <trkpt lat="48.89384" lon="1.65935">
        <ele>66</ele>
        <time>2023-06-30T13:43:21Z</time>
      </trkpt>
      <trkpt lat="48.89382" lon="1.65944">
        <ele>66</ele>
        <time>2023-06-30T13:43:29Z</time>
      </trkpt>
      <trkpt lat="48.89368" lon="1.65955">
        <ele>65</ele>
        <time>2023-06-30T13:43:50Z</time>
      </trkpt>
      <trkpt lat="48.89343" lon="1.65967">
        <ele>64</ele>
        <time>2023-06-30T13:44:25Z</time>
      </trkpt>
      <trkpt lat="48.8933" lon="1.65971">
        <ele>64</ele>
        <time>2023-06-30T13:44:43Z</time>
      </trkpt>
      <trkpt lat="48.89264" lon="1.65975">
        <ele>69</ele>
        <time>2023-06-30T13:46:11Z</time>
      </trkpt>
      <trkpt lat="48.89254" lon="1.65979">
        <ele>70</ele>
        <time>2023-06-30T13:46:25Z</time>
      </trkpt>
      <trkpt lat="48.89237" lon="1.6597">
        <ele>75</ele>
        <time>2023-06-30T13:46:49Z</time>
      </trkpt>
      <trkpt lat="48.89226" lon="1.65951">
        <ele>78</ele>
        <time>2023-06-30T13:47:11Z</time>
      </trkpt>
      <trkpt lat="48.89201" lon="1.65848">
        <ele>88</ele>
        <time>2023-06-30T13:48:48Z</time>
      </trkpt>
      <trkpt lat="48.89184" lon="1.6579">
        <ele>94</ele>
        <time>2023-06-30T13:49:43Z</time>
      </trkpt>
      <trkpt lat="48.89175" lon="1.6576">
        <ele>97</ele>
        <time>2023-06-30T13:50:12Z</time>
      </trkpt>
      <trkpt lat="48.89159" lon="1.6573">
        <ele>100</ele>
        <time>2023-06-30T13:50:46Z</time>
      </trkpt>
      <trkpt lat="48.8913" lon="1.65687">
        <ele>100</ele>
        <time>2023-06-30T13:51:40Z</time>
      </trkpt>
      <trkpt lat="48.89089" lon="1.65655">
        <ele>101</ele>
        <time>2023-06-30T13:52:42Z</time>
      </trkpt>
      <trkpt lat="48.89062" lon="1.6564">
        <ele>100</ele>
        <time>2023-06-30T13:53:20Z</time>
      </trkpt>
      <trkpt lat="48.8905" lon="1.65636">
        <ele>100</ele>
        <time>2023-06-30T13:53:36Z</time>
      </trkpt>
      <trkpt lat="48.89052" lon="1.6561">
        <ele>99</ele>
        <time>2023-06-30T13:53:59Z</time>
      </trkpt>
      <trkpt lat="48.8906" lon="1.65588">
        <ele>97</ele>
        <time>2023-06-30T13:54:22Z</time>
      </trkpt>
      <trkpt lat="48.89078" lon="1.6555">
        <ele>91</ele>
        <time>2023-06-30T13:55:03Z</time>
      </trkpt>
      <trkpt lat="48.8909" lon="1.65515">
        <ele>86</ele>
        <time>2023-06-30T13:55:37Z</time>
      </trkpt>
      <trkpt lat="48.89094" lon="1.65509">
        <ele>85</ele>
        <time>2023-06-30T13:55:45Z</time>
      </trkpt>
      <trkpt lat="48.8912" lon="1.65488">
        <ele>81</ele>
        <time>2023-06-30T13:56:24Z</time>
      </trkpt>
      <trkpt lat="48.89129" lon="1.65474">
        <ele>78</ele>
        <time>2023-06-30T13:56:41Z</time>
      </trkpt>
      <trkpt lat="48.89133" lon="1.65451">
        <ele>75</ele>
        <time>2023-06-30T13:57:02Z</time>
      </trkpt>
      <trkpt lat="48.89112" lon="1.654">
        <ele>73</ele>
        <time>2023-06-30T13:57:55Z</time>
      </trkpt>
      <trkpt lat="48.89104" lon="1.65375">
        <ele>73</ele>
        <time>2023-06-30T13:58:19Z</time>
      </trkpt>
      <trkpt lat="48.891" lon="1.65356">
        <ele>73</ele>
        <time>2023-06-30T13:58:37Z</time>
      </trkpt>
      <trkpt lat="48.89098" lon="1.65277">
        <ele>72</ele>
        <time>2023-06-30T13:59:46Z</time>
      </trkpt>
      <trkpt lat="48.89097" lon="1.65256">
        <ele>71</ele>
        <time>2023-06-30T14:00:05Z</time>
      </trkpt>
      <trkpt lat="48.89091" lon="1.65218">
        <ele>72</ele>
        <time>2023-06-30T14:00:39Z</time>
      </trkpt>
      <trkpt lat="48.89072" lon="1.65151">
        <ele>75</ele>
        <time>2023-06-30T14:01:43Z</time>
      </trkpt>
      <trkpt lat="48.89051" lon="1.65043">
        <ele>79</ele>
        <time>2023-06-30T14:03:22Z</time>
      </trkpt>
      <trkpt lat="48.89056" lon="1.64935">
        <ele>76</ele>
        <time>2023-06-30T14:04:57Z</time>
      </trkpt>
      <trkpt lat="48.89051" lon="1.64854">
        <ele>76</ele>
        <time>2023-06-30T14:06:08Z</time>
      </trkpt>
      <trkpt lat="48.89051" lon="1.64849">
        <ele>76</ele>
        <time>2023-06-30T14:06:13Z</time>
      </trkpt>
      <trkpt lat="48.89051" lon="1.64843">
        <ele>76</ele>
        <time>2023-06-30T14:06:18Z</time>
      </trkpt>
      <trkpt lat="48.89056" lon="1.64785">
        <ele>78</ele>
        <time>2023-06-30T14:07:09Z</time>
      </trkpt>
      <trkpt lat="48.89066" lon="1.64736">
        <ele>80</ele>
        <time>2023-06-30T14:07:54Z</time>
      </trkpt>
      <trkpt lat="48.89088" lon="1.64669">
        <ele>82</ele>
        <time>2023-06-30T14:09:00Z</time>
      </trkpt>
      <trkpt lat="48.89103" lon="1.6461">
        <ele>83</ele>
        <time>2023-06-30T14:09:55Z</time>
      </trkpt>
      <trkpt lat="48.89116" lon="1.64553">
        <ele>81</ele>
        <time>2023-06-30T14:10:48Z</time>
      </trkpt>
      <trkpt lat="48.89117" lon="1.64535">
        <ele>81</ele>
        <time>2023-06-30T14:11:04Z</time>
      </trkpt>
      <trkpt lat="48.89114" lon="1.64506">
        <ele>81</ele>
        <time>2023-06-30T14:11:30Z</time>
      </trkpt>
      <trkpt lat="48.89097" lon="1.64416">
        <ele>78</ele>
        <time>2023-06-30T14:12:52Z</time>
      </trkpt>
      <trkpt lat="48.89082" lon="1.64345">
        <ele>76</ele>
        <time>2023-06-30T14:13:57Z</time>
      </trkpt>
      <trkpt lat="48.89073" lon="1.64319">
        <ele>77</ele>
        <time>2023-06-30T14:14:23Z</time>
      </trkpt>
      <trkpt lat="48.89061" lon="1.64296">
        <ele>79</ele>
        <time>2023-06-30T14:14:49Z</time>
      </trkpt>
      <trkpt lat="48.89056" lon="1.64281">
        <ele>80</ele>
        <time>2023-06-30T14:15:04Z</time>
      </trkpt>
      <trkpt lat="48.89037" lon="1.64213">
        <ele>83</ele>
        <time>2023-06-30T14:16:09Z</time>
      </trkpt>
      <trkpt lat="48.89033" lon="1.64176">
        <ele>84</ele>
        <time>2023-06-30T14:16:41Z</time>
      </trkpt>
      <trkpt lat="48.89036" lon="1.64135">
        <ele>83</ele>
        <time>2023-06-30T14:17:18Z</time>
      </trkpt>
      <trkpt lat="48.89036" lon="1.64033">
        <ele>83</ele>
        <time>2023-06-30T14:18:47Z</time>
      </trkpt>
      <trkpt lat="48.89047" lon="1.63917">
        <ele>82</ele>
        <time>2023-06-30T14:20:30Z</time>
      </trkpt>
      <trkpt lat="48.89061" lon="1.63844">
        <ele>83</ele>
        <time>2023-06-30T14:21:37Z</time>
      </trkpt>
      <trkpt lat="48.89089" lon="1.63776">
        <ele>82</ele>
        <time>2023-06-30T14:22:47Z</time>
      </trkpt>
      <trkpt lat="48.89102" lon="1.63732">
        <ele>83</ele>
        <time>2023-06-30T14:23:29Z</time>
      </trkpt>
      <trkpt lat="48.89106" lon="1.63718">
        <ele>83</ele>
        <time>2023-06-30T14:23:43Z</time>
      </trkpt>
      <trkpt lat="48.89075" lon="1.63768">
        <ele>86</ele>
        <time>2023-06-30T14:24:43Z</time>
      </trkpt>
      <trkpt lat="48.89085" lon="1.63645">
        <ele>92</ele>
        <time>2023-06-30T14:26:32Z</time>
      </trkpt>
      <trkpt lat="48.89082" lon="1.63621">
        <ele>93</ele>
        <time>2023-06-30T14:26:53Z</time>
      </trkpt>
      <trkpt lat="48.89076" lon="1.636">
        <ele>93</ele>
        <time>2023-06-30T14:27:13Z</time>
      </trkpt>
      <trkpt lat="48.89064" lon="1.63577">
        <ele>94</ele>
        <time>2023-06-30T14:27:39Z</time>
      </trkpt>
      <trkpt lat="48.89051" lon="1.63567">
        <ele>95</ele>
        <time>2023-06-30T14:27:59Z</time>
      </trkpt>
      <trkpt lat="48.89034" lon="1.6356">
        <ele>96</ele>
        <time>2023-06-30T14:28:22Z</time>
      </trkpt>
      <trkpt lat="48.89018" lon="1.6356">
        <ele>98</ele>
        <time>2023-06-30T14:28:43Z</time>
      </trkpt>
      <trkpt lat="48.89004" lon="1.63568">
        <ele>100</ele>
        <time>2023-06-30T14:29:03Z</time>
      </trkpt>
      <trkpt lat="48.88996" lon="1.63577">
        <ele>102</ele>
        <time>2023-06-30T14:29:17Z</time>
      </trkpt>
      <trkpt lat="48.88972" lon="1.63581">
        <ele>103</ele>
        <time>2023-06-30T14:29:49Z</time>
      </trkpt>
      <trkpt lat="48.88915" lon="1.63546">
        <ele>106</ele>
        <time>2023-06-30T14:31:11Z</time>
      </trkpt>
      <trkpt lat="48.88888" lon="1.6351">
        <ele>107</ele>
        <time>2023-06-30T14:31:59Z</time>
      </trkpt>
      <trkpt lat="48.88812" lon="1.63429">
        <ele>112</ele>
        <time>2023-06-30T14:34:03Z</time>
      </trkpt>
      <trkpt lat="48.88772" lon="1.63368">
        <ele>111</ele>
        <time>2023-06-30T14:35:18Z</time>
      </trkpt>
      <trkpt lat="48.88752" lon="1.6328">
        <ele>111</ele>
        <time>2023-06-30T14:36:40Z</time>
      </trkpt>
      <trkpt lat="48.88741" lon="1.63245">
        <ele>112</ele>
        <time>2023-06-30T14:37:14Z</time>
      </trkpt>
      <trkpt lat="48.8872" lon="1.63194">
        <ele>111</ele>
        <time>2023-06-30T14:38:07Z</time>
      </trkpt>
      <trkpt lat="48.88688" lon="1.63134">
        <ele>110</ele>
        <time>2023-06-30T14:39:15Z</time>
      </trkpt>
      <trkpt lat="48.88665" lon="1.63098">
        <ele>109</ele>
        <time>2023-06-30T14:39:59Z</time>
      </trkpt>
      <trkpt lat="48.88548" lon="1.62975">
        <ele>110</ele>
        <time>2023-06-30T14:43:08Z</time>
      </trkpt>
      <trkpt lat="48.88549" lon="1.62974">
        <ele>110</ele>
        <time>2023-06-30T14:43:10Z</time>
      </trkpt>
      <trkpt lat="48.88548" lon="1.62975">
        <ele>110</ele>
        <time>2023-06-30T14:43:12Z</time>
      </trkpt>
      <trkpt lat="48.88536" lon="1.62963">
        <ele>111</ele>
        <time>2023-06-30T14:43:31Z</time>
      </trkpt>
      <trkpt lat="48.88475" lon="1.62933">
        <ele>111</ele>
        <time>2023-06-30T14:44:56Z</time>
      </trkpt>
      <trkpt lat="48.88414" lon="1.62916">
        <ele>110</ele>
        <time>2023-06-30T14:46:19Z</time>
      </trkpt>
      <trkpt lat="48.8838" lon="1.62902">
        <ele>109</ele>
        <time>2023-06-30T14:47:06Z</time>
      </trkpt>
      <trkpt lat="48.88361" lon="1.62901">
        <ele>109</ele>
        <time>2023-06-30T14:47:32Z</time>
      </trkpt>
      <trkpt lat="48.88338" lon="1.62903">
        <ele>109</ele>
        <time>2023-06-30T14:48:02Z</time>
      </trkpt>
      <trkpt lat="48.88316" lon="1.62909">
        <ele>110</ele>
        <time>2023-06-30T14:48:32Z</time>
      </trkpt>
      <trkpt lat="48.88287" lon="1.62918">
        <ele>110</ele>
        <time>2023-06-30T14:49:12Z</time>
      </trkpt>
      <trkpt lat="48.88161" lon="1.62804">
        <ele>114</ele>
        <time>2023-06-30T14:52:27Z</time>
      </trkpt>
      <trkpt lat="48.88005" lon="1.6266">
        <ele>119</ele>
        <time>2023-06-30T14:56:31Z</time>
      </trkpt>
      <trkpt lat="48.87858" lon="1.62527">
        <ele>121</ele>
        <time>2023-06-30T15:00:19Z</time>
      </trkpt>
      <trkpt lat="48.87605" lon="1.62254">
        <ele>122</ele>
        <time>2023-06-30T15:07:13Z</time>
      </trkpt>
      <trkpt lat="48.87397" lon="1.61968">
        <ele>129</ele>
        <time>2023-06-30T15:13:27Z</time>
      </trkpt>
      <trkpt lat="48.87379" lon="1.61941">
        <ele>129</ele>
        <time>2023-06-30T15:14:01Z</time>
      </trkpt>
      <trkpt lat="48.87362" lon="1.6192">
        <ele>130</ele>
        <time>2023-06-30T15:14:30Z</time>
      </trkpt>
      <trkpt lat="48.87339" lon="1.61903">
        <ele>130</ele>
        <time>2023-06-30T15:15:04Z</time>
      </trkpt>
      <trkpt lat="48.87319" lon="1.61891">
        <ele>130</ele>
        <time>2023-06-30T15:15:33Z</time>
      </trkpt>
      <trkpt lat="48.87299" lon="1.61886">
        <ele>129</ele>
        <time>2023-06-30T15:16:00Z</time>
      </trkpt>
      <trkpt lat="48.87277" lon="1.61889">
        <ele>129</ele>
        <time>2023-06-30T15:16:30Z</time>
      </trkpt>
      <trkpt lat="48.87259" lon="1.61897">
        <ele>129</ele>
        <time>2023-06-30T15:16:55Z</time>
      </trkpt>
      <trkpt lat="48.8724" lon="1.61912">
        <ele>130</ele>
        <time>2023-06-30T15:17:23Z</time>
      </trkpt>
      <trkpt lat="48.87216" lon="1.61934">
        <ele>129</ele>
        <time>2023-06-30T15:18:01Z</time>
      </trkpt>
      <trkpt lat="48.87207" lon="1.61941">
        <ele>129</ele>
        <time>2023-06-30T15:18:14Z</time>
      </trkpt>
      <trkpt lat="48.87181" lon="1.61945">
        <ele>129</ele>
        <time>2023-06-30T15:18:49Z</time>
      </trkpt>
      <trkpt lat="48.87115" lon="1.61938">
        <ele>129</ele>
        <time>2023-06-30T15:20:17Z</time>
      </trkpt>
      <trkpt lat="48.87027" lon="1.61919">
        <ele>129</ele>
        <time>2023-06-30T15:22:16Z</time>
      </trkpt>
      <trkpt lat="48.87" lon="1.61915">
        <ele>129</ele>
        <time>2023-06-30T15:22:52Z</time>
      </trkpt>
      <trkpt lat="48.86973" lon="1.61917">
        <ele>129</ele>
        <time>2023-06-30T15:23:28Z</time>
      </trkpt>
      <trkpt lat="48.86843" lon="1.62003">
        <ele>127</ele>
        <time>2023-06-30T15:26:37Z</time>
      </trkpt>
      <trkpt lat="48.86812" lon="1.62027">
        <ele>126</ele>
        <time>2023-06-30T15:27:24Z</time>
      </trkpt>
      <trkpt lat="48.8681" lon="1.62034">
        <ele>126</ele>
        <time>2023-06-30T15:27:30Z</time>
      </trkpt>
      <trkpt lat="48.86812" lon="1.62027">
        <ele>126</ele>
        <time>2023-06-30T15:27:37Z</time>
      </trkpt>
      <trkpt lat="48.86799" lon="1.62013">
        <ele>126</ele>
        <time>2023-06-30T15:27:58Z</time>
      </trkpt>
      <trkpt lat="48.86758" lon="1.61892">
        <ele>125</ele>
        <time>2023-06-30T15:29:58Z</time>
      </trkpt>
      <trkpt lat="48.86747" lon="1.61892">
        <ele>124</ele>
        <time>2023-06-30T15:30:13Z</time>
      </trkpt>
      <trkpt lat="48.86702" lon="1.61871">
        <ele>123</ele>
        <time>2023-06-30T15:31:15Z</time>
      </trkpt>
      <trkpt lat="48.86697" lon="1.61872">
        <ele>123</ele>
        <time>2023-06-30T15:31:22Z</time>
      </trkpt>
      <trkpt lat="48.86625" lon="1.62004">
        <ele>123</ele>
        <time>2023-06-30T15:33:53Z</time>
      </trkpt>
      <trkpt lat="48.86604" lon="1.62025">
        <ele>123</ele>
        <time>2023-06-30T15:34:26Z</time>
      </trkpt>
      <trkpt lat="48.865" lon="1.62141">
        <ele>126</ele>
        <time>2023-06-30T15:37:18Z</time>
      </trkpt>
      <trkpt lat="48.86437" lon="1.62206">
        <ele>128</ele>
        <time>2023-06-30T15:39:00Z</time>
      </trkpt>
      <trkpt lat="48.86401" lon="1.62238">
        <ele>128</ele>
        <time>2023-06-30T15:39:56Z</time>
      </trkpt>
      <trkpt lat="48.8636" lon="1.62267">
        <ele>130</ele>
        <time>2023-06-30T15:40:56Z</time>
      </trkpt>
      <trkpt lat="48.86293" lon="1.62301">
        <ele>132</ele>
        <time>2023-06-30T15:42:30Z</time>
      </trkpt>
      <trkpt lat="48.86261" lon="1.62321">
        <ele>133</ele>
        <time>2023-06-30T15:43:16Z</time>
      </trkpt>
      <trkpt lat="48.86247" lon="1.62336">
        <ele>133</ele>
        <time>2023-06-30T15:43:39Z</time>
      </trkpt>
      <trkpt lat="48.86236" lon="1.62355">
        <ele>133</ele>
        <time>2023-06-30T15:44:01Z</time>
      </trkpt>
      <trkpt lat="48.86233" lon="1.62366">
        <ele>133</ele>
        <time>2023-06-30T15:44:12Z</time>
      </trkpt>
      <trkpt lat="48.86227" lon="1.62319">
        <ele>133</ele>
        <time>2023-06-30T15:44:54Z</time>
      </trkpt>
      <trkpt lat="48.86226" lon="1.62299">
        <ele>133</ele>
        <time>2023-06-30T15:45:12Z</time>
      </trkpt>
      <trkpt lat="48.8623" lon="1.62188">
        <ele>132</ele>
        <time>2023-06-30T15:46:49Z</time>
      </trkpt>
      <trkpt lat="48.86219" lon="1.62037">
        <ele>130</ele>
        <time>2023-06-30T15:49:02Z</time>
      </trkpt>
      <trkpt lat="48.85984" lon="1.61891">
        <ele>129</ele>
        <time>2023-06-30T15:54:41Z</time>
      </trkpt>
      <trkpt lat="48.85975" lon="1.61857">
        <ele>130</ele>
        <time>2023-06-30T15:55:13Z</time>
      </trkpt>
      <trkpt lat="48.8597" lon="1.61843">
        <ele>130</ele>
        <time>2023-06-30T15:55:27Z</time>
      </trkpt>
      <trkpt lat="48.85965" lon="1.61839">
        <ele>130</ele>
        <time>2023-06-30T15:55:35Z</time>
      </trkpt>
      <trkpt lat="48.85958" lon="1.6184">
        <ele>130</ele>
        <time>2023-06-30T15:55:44Z</time>
      </trkpt>
      <trkpt lat="48.85934" lon="1.6186">
        <ele>130</ele>
        <time>2023-06-30T15:56:21Z</time>
      </trkpt>
      <trkpt lat="48.85331" lon="1.61486">
        <ele>136</ele>
        <time>2023-06-30T16:10:50Z</time>
      </trkpt>
      <trkpt lat="48.85326" lon="1.61492">
        <ele>136</ele>
        <time>2023-06-30T16:10:58Z</time>
      </trkpt>
      <trkpt lat="48.8532" lon="1.61498">
        <ele>136</ele>
        <time>2023-06-30T16:11:08Z</time>
      </trkpt>
      <trkpt lat="48.85312" lon="1.61502">
        <ele>137</ele>
        <time>2023-06-30T16:11:19Z</time>
      </trkpt>
      <trkpt lat="48.85304" lon="1.61501">
        <ele>137</ele>
        <time>2023-06-30T16:11:30Z</time>
      </trkpt>
      <trkpt lat="48.85296" lon="1.61496">
        <ele>137</ele>
        <time>2023-06-30T16:11:42Z</time>
      </trkpt>
      <trkpt lat="48.85289" lon="1.61487">
        <ele>137</ele>
        <time>2023-06-30T16:11:54Z</time>
      </trkpt>
      <trkpt lat="48.85284" lon="1.61471">
        <ele>137</ele>
        <time>2023-06-30T16:12:09Z</time>
      </trkpt>
      <trkpt lat="48.85282" lon="1.61456">
        <ele>137</ele>
        <time>2023-06-30T16:12:23Z</time>
      </trkpt>
      <trkpt lat="48.85241" lon="1.6143">
        <ele>138</ele>
        <time>2023-06-30T16:13:22Z</time>
      </trkpt>
      <trkpt lat="48.85232" lon="1.61435">
        <ele>138</ele>
        <time>2023-06-30T16:13:35Z</time>
      </trkpt>
      <trkpt lat="48.85241" lon="1.6143">
        <ele>138</ele>
        <time>2023-06-30T16:13:48Z</time>
      </trkpt>
      <trkpt lat="48.85974" lon="1.61003">
        <ele>125</ele>
        <time>2023-06-30T16:31:15Z</time>
      </trkpt>
      <trkpt lat="48.8597" lon="1.60849">
        <ele>127</ele>
        <time>2023-06-30T16:33:31Z</time>
      </trkpt>
      <trkpt lat="48.8597" lon="1.60753">
        <ele>127</ele>
        <time>2023-06-30T16:34:55Z</time>
      </trkpt>
      <trkpt lat="48.86108" lon="1.606">
        <ele>118</ele>
        <time>2023-06-30T16:38:43Z</time>
      </trkpt>
      <trkpt lat="48.8614" lon="1.60563">
        <ele>117</ele>
        <time>2023-06-30T16:39:36Z</time>
      </trkpt>
      <trkpt lat="48.86145" lon="1.60551">
        <ele>116</ele>
        <time>2023-06-30T16:39:49Z</time>
      </trkpt>
      <trkpt lat="48.86146" lon="1.60543">
        <ele>116</ele>
        <time>2023-06-30T16:39:56Z</time>
      </trkpt>
      <trkpt lat="48.86156" lon="1.6054">
        <ele>116</ele>
        <time>2023-06-30T16:40:10Z</time>
      </trkpt>
      <trkpt lat="48.86177" lon="1.60511">
        <ele>116</ele>
        <time>2023-06-30T16:40:47Z</time>
      </trkpt>
      <trkpt lat="48.8621" lon="1.60471">
        <ele>115</ele>
        <time>2023-06-30T16:41:44Z</time>
      </trkpt>
      <trkpt lat="48.86227" lon="1.60465">
        <ele>114</ele>
        <time>2023-06-30T16:42:07Z</time>
      </trkpt>
      <trkpt lat="48.86234" lon="1.60416">
        <ele>114</ele>
        <time>2023-06-30T16:42:51Z</time>
      </trkpt>
      <trkpt lat="48.86248" lon="1.60251">
        <ele>117</ele>
        <time>2023-06-30T16:45:17Z</time>
      </trkpt>
      <trkpt lat="48.86248" lon="1.60211">
        <ele>117</ele>
        <time>2023-06-30T16:45:52Z</time>
      </trkpt>
      <trkpt lat="48.86244" lon="1.60152">
        <ele>118</ele>
        <time>2023-06-30T16:46:44Z</time>
      </trkpt>
      <trkpt lat="48.86236" lon="1.60101">
        <ele>119</ele>
        <time>2023-06-30T16:47:30Z</time>
      </trkpt>
      <trkpt lat="48.86197" lon="1.59966">
        <ele>121</ele>
        <time>2023-06-30T16:49:40Z</time>
      </trkpt>
      <trkpt lat="48.86558" lon="1.59997">
        <ele>123</ele>
        <time>2023-06-30T16:57:42Z</time>
      </trkpt>
      <trkpt lat="48.86662" lon="1.59997">
        <ele>122</ele>
        <time>2023-06-30T17:00:01Z</time>
      </trkpt>
      <trkpt lat="48.86775" lon="1.59974">
        <ele>122</ele>
        <time>2023-06-30T17:02:33Z</time>
      </trkpt>
      <trkpt lat="48.86886" lon="1.59927">
        <ele>122</ele>
        <time>2023-06-30T17:05:07Z</time>
      </trkpt>
      <trkpt lat="48.86886" lon="1.59934">
        <ele>122</ele>
        <time>2023-06-30T17:05:13Z</time>
      </trkpt>
      <trkpt lat="48.86897" lon="1.60093">
        <ele>121</ele>
        <time>2023-06-30T17:07:33Z</time>
      </trkpt>
      <trkpt lat="48.86906" lon="1.60323">
        <ele>123</ele>
        <time>2023-06-30T17:10:56Z</time>
      </trkpt>
      <trkpt lat="48.86951" lon="1.6034">
        <ele>121</ele>
        <time>2023-06-30T17:11:58Z</time>
      </trkpt>
      <trkpt lat="48.86984" lon="1.60347">
        <ele>119</ele>
        <time>2023-06-30T17:12:42Z</time>
      </trkpt>
      <trkpt lat="48.87027" lon="1.60361">
        <ele>118</ele>
        <time>2023-06-30T17:13:41Z</time>
      </trkpt>
      <trkpt lat="48.87057" lon="1.60366">
        <ele>118</ele>
        <time>2023-06-30T17:14:21Z</time>
      </trkpt>
      <trkpt lat="48.87089" lon="1.60365">
        <ele>117</ele>
        <time>2023-06-30T17:15:04Z</time>
      </trkpt>
      <trkpt lat="48.87188" lon="1.60327">
        <ele>115</ele>
        <time>2023-06-30T17:17:20Z</time>
      </trkpt>
      <trkpt lat="48.87184" lon="1.6025">
        <ele>116</ele>
        <time>2023-06-30T17:18:28Z</time>
      </trkpt>
      <trkpt lat="48.87189" lon="1.6022">
        <ele>116</ele>
        <time>2023-06-30T17:18:55Z</time>
      </trkpt>
      <trkpt lat="48.87198" lon="1.60141">
        <ele>115</ele>
        <time>2023-06-30T17:20:05Z</time>
      </trkpt>
      <trkpt lat="48.87206" lon="1.60094">
        <ele>115</ele>
        <time>2023-06-30T17:20:48Z</time>
      </trkpt>
      <trkpt lat="48.87227" lon="1.6005">
        <ele>113</ele>
        <time>2023-06-30T17:21:36Z</time>
      </trkpt>
      <trkpt lat="48.87426" lon="1.59955">
        <ele>121</ele>
        <time>2023-06-30T17:26:14Z</time>
      </trkpt>
      <trkpt lat="48.87483" lon="1.60114">
        <ele>125</ele>
        <time>2023-06-30T17:28:53Z</time>
      </trkpt>
      <trkpt lat="48.87513" lon="1.60179">
        <ele>123</ele>
        <time>2023-06-30T17:30:03Z</time>
      </trkpt>
      <trkpt lat="48.87574" lon="1.6013">
        <ele>126</ele>
        <time>2023-06-30T17:31:35Z</time>
      </trkpt>
      <trkpt lat="48.87602" lon="1.60101">
        <ele>126</ele>
        <time>2023-06-30T17:32:20Z</time>
      </trkpt>
      <trkpt lat="48.87608" lon="1.59887">
        <ele>124</ele>
        <time>2023-06-30T17:35:28Z</time>
      </trkpt>
      <trkpt lat="48.87612" lon="1.59815">
        <ele>123</ele>
        <time>2023-06-30T17:36:31Z</time>
      </trkpt>
      <trkpt lat="48.8762" lon="1.59788">
        <ele>123</ele>
        <time>2023-06-30T17:36:57Z</time>
      </trkpt>
      <trkpt lat="48.87708" lon="1.59828">
        <ele>125</ele>
        <time>2023-06-30T17:39:00Z</time>
      </trkpt>
      <trkpt lat="48.87771" lon="1.59873">
        <ele>127</ele>
        <time>2023-06-30T17:40:33Z</time>
      </trkpt>
      <trkpt lat="48.87831" lon="1.59926">
        <ele>130</ele>
        <time>2023-06-30T17:42:05Z</time>
      </trkpt>
      <trkpt lat="48.87989" lon="1.60117">
        <ele>127</ele>
        <time>2023-06-30T17:46:35Z</time>
      </trkpt>
      <trkpt lat="48.88069" lon="1.60253">
        <ele>129</ele>
        <time>2023-06-30T17:49:15Z</time>
      </trkpt>
      <trkpt lat="48.88147" lon="1.60366">
        <ele>129</ele>
        <time>2023-06-30T17:51:39Z</time>
      </trkpt>
      <trkpt lat="48.88205" lon="1.60446">
        <ele>130</ele>
        <time>2023-06-30T17:53:23Z</time>
      </trkpt>
      <trkpt lat="48.88233" lon="1.60475">
        <ele>130</ele>
        <time>2023-06-30T17:54:08Z</time>
      </trkpt>
      <trkpt lat="48.88277" lon="1.60495">
        <ele>130</ele>
        <time>2023-06-30T17:55:10Z</time>
      </trkpt>
      <trkpt lat="48.88379" lon="1.60514">
        <ele>131</ele>
        <time>2023-06-30T17:57:27Z</time>
      </trkpt>
      <trkpt lat="48.88421" lon="1.60528">
        <ele>130</ele>
        <time>2023-06-30T17:58:24Z</time>
      </trkpt>
      <trkpt lat="48.88467" lon="1.60556">
        <ele>129</ele>
        <time>2023-06-30T17:59:30Z</time>
      </trkpt>
      <trkpt lat="48.88538" lon="1.60617">
        <ele>128</ele>
        <time>2023-06-30T18:01:19Z</time>
      </trkpt>
      <trkpt lat="48.88572" lon="1.60652">
        <ele>127</ele>
        <time>2023-06-30T18:02:14Z</time>
      </trkpt>
      <trkpt lat="48.88592" lon="1.60688">
        <ele>126</ele>
        <time>2023-06-30T18:02:55Z</time>
      </trkpt>
      <trkpt lat="48.88621" lon="1.60726">
        <ele>125</ele>
        <time>2023-06-30T18:03:46Z</time>
      </trkpt>
      <trkpt lat="48.88659" lon="1.6076">
        <ele>124</ele>
        <time>2023-06-30T18:04:45Z</time>
      </trkpt>
      <trkpt lat="48.88684" lon="1.60794">
        <ele>123</ele>
        <time>2023-06-30T18:05:30Z</time>
      </trkpt>
      <trkpt lat="48.88706" lon="1.60832">
        <ele>122</ele>
        <time>2023-06-30T18:06:14Z</time>
      </trkpt>
      <trkpt lat="48.88781" lon="1.60928">
        <ele>118</ele>
        <time>2023-06-30T18:08:25Z</time>
      </trkpt>
      <trkpt lat="48.88804" lon="1.60949">
        <ele>118</ele>
        <time>2023-06-30T18:09:01Z</time>
      </trkpt>
      <trkpt lat="48.88813" lon="1.60953">
        <ele>118</ele>
        <time>2023-06-30T18:09:13Z</time>
      </trkpt>
      <trkpt lat="48.88839" lon="1.60944">
        <ele>117</ele>
        <time>2023-06-30T18:09:49Z</time>
      </trkpt>
      <trkpt lat="48.88851" lon="1.60947">
        <ele>117</ele>
        <time>2023-06-30T18:10:05Z</time>
      </trkpt>
      <trkpt lat="48.88869" lon="1.60959">
        <ele>117</ele>
        <time>2023-06-30T18:10:31Z</time>
      </trkpt>
      <trkpt lat="48.89035" lon="1.61118">
        <ele>114</ele>
        <time>2023-06-30T18:14:53Z</time>
      </trkpt>
      <trkpt lat="48.89036" lon="1.61121">
        <ele>114</ele>
        <time>2023-06-30T18:14:56Z</time>
      </trkpt>
      <trkpt lat="48.89035" lon="1.61118">
        <ele>114</ele>
        <time>2023-06-30T18:14:59Z</time>
      </trkpt>
      <trkpt lat="48.89052" lon="1.61144">
        <ele>113</ele>
        <time>2023-06-30T18:15:31Z</time>
      </trkpt>
      <trkpt lat="48.89094" lon="1.61199">
        <ele>113</ele>
        <time>2023-06-30T18:16:45Z</time>
      </trkpt>
      <trkpt lat="48.89124" lon="1.61227">
        <ele>112</ele>
        <time>2023-06-30T18:17:32Z</time>
      </trkpt>
      <trkpt lat="48.89152" lon="1.61264">
        <ele>111</ele>
        <time>2023-06-30T18:18:22Z</time>
      </trkpt>
      <trkpt lat="48.89232" lon="1.61402">
        <ele>108</ele>
        <time>2023-06-30T18:21:03Z</time>
      </trkpt>
      <trkpt lat="48.89276" lon="1.61265">
        <ele>112</ele>
        <time>2023-06-30T18:23:17Z</time>
      </trkpt>
      <trkpt lat="48.89311" lon="1.61153">
        <ele>115</ele>
        <time>2023-06-30T18:25:06Z</time>
      </trkpt>
      <trkpt lat="48.89319" lon="1.61109">
        <ele>116</ele>
        <time>2023-06-30T18:25:46Z</time>
      </trkpt>
      <trkpt lat="48.89332" lon="1.61008">
        <ele>117</ele>
        <time>2023-06-30T18:27:16Z</time>
      </trkpt>
      <trkpt lat="48.89332" lon="1.60852">
        <ele>122</ele>
        <time>2023-06-30T18:29:33Z</time>
      </trkpt>
      <trkpt lat="48.89339" lon="1.60701">
        <ele>124</ele>
        <time>2023-06-30T18:31:46Z</time>
      </trkpt>
      <trkpt lat="48.89346" lon="1.60643">
        <ele>125</ele>
        <time>2023-06-30T18:32:38Z</time>
      </trkpt>
      <trkpt lat="48.89362" lon="1.60558">
        <ele>126</ele>
        <time>2023-06-30T18:33:55Z</time>
      </trkpt>
      <trkpt lat="48.89376" lon="1.60501">
        <ele>127</ele>
        <time>2023-06-30T18:34:48Z</time>
      </trkpt>
      <trkpt lat="48.89374" lon="1.605">
        <ele>127</ele>
        <time>2023-06-30T18:34:51Z</time>
      </trkpt>
      <trkpt lat="48.89425" lon="1.60536">
        <ele>129</ele>
        <time>2023-06-30T18:36:06Z</time>
      </trkpt>
      <trkpt lat="48.89497" lon="1.60604">
        <ele>128</ele>
        <time>2023-06-30T18:37:59Z</time>
      </trkpt>
      <trkpt lat="48.89525" lon="1.60635">
        <ele>125</ele>
        <time>2023-06-30T18:38:46Z</time>
      </trkpt>
      <trkpt lat="48.8955" lon="1.60669">
        <ele>123</ele>
        <time>2023-06-30T18:39:30Z</time>
      </trkpt>
      <trkpt lat="48.89624" lon="1.60792">
        <ele>108</ele>
        <time>2023-06-30T18:41:57Z</time>
      </trkpt>
      <trkpt lat="48.89642" lon="1.60863">
        <ele>102</ele>
        <time>2023-06-30T18:43:03Z</time>
      </trkpt>
      <trkpt lat="48.89645" lon="1.60903">
        <ele>100</ele>
        <time>2023-06-30T18:43:39Z</time>
      </trkpt>
      <trkpt lat="48.89647" lon="1.60955">
        <ele>98</ele>
        <time>2023-06-30T18:44:24Z</time>
      </trkpt>
      <trkpt lat="48.89643" lon="1.61008">
        <ele>97</ele>
        <time>2023-06-30T18:45:11Z</time>
      </trkpt>
      <trkpt lat="48.89645" lon="1.61039">
        <ele>95</ele>
        <time>2023-06-30T18:45:39Z</time>
      </trkpt>
      <trkpt lat="48.89662" lon="1.6112">
        <ele>90</ele>
        <time>2023-06-30T18:46:53Z</time>
      </trkpt>
      <trkpt lat="48.89677" lon="1.61148">
        <ele>91</ele>
        <time>2023-06-30T18:47:25Z</time>
      </trkpt>
      <trkpt lat="48.89681" lon="1.61178">
        <ele>92</ele>
        <time>2023-06-30T18:47:52Z</time>
      </trkpt>
      <trkpt lat="48.89681" lon="1.61202">
        <ele>92</ele>
        <time>2023-06-30T18:48:13Z</time>
      </trkpt>
      <trkpt lat="48.89674" lon="1.61278">
        <ele>93</ele>
        <time>2023-06-30T18:49:20Z</time>
      </trkpt>
      <trkpt lat="48.89679" lon="1.6131">
        <ele>93</ele>
        <time>2023-06-30T18:49:49Z</time>
      </trkpt>
      <trkpt lat="48.89685" lon="1.61326">
        <ele>93</ele>
        <time>2023-06-30T18:50:05Z</time>
      </trkpt>
      <trkpt lat="48.89706" lon="1.61325">
        <ele>95</ele>
        <time>2023-06-30T18:50:33Z</time>
      </trkpt>
      <trkpt lat="48.89788" lon="1.61312">
        <ele>104</ele>
        <time>2023-06-30T18:52:23Z</time>
      </trkpt>
      <trkpt lat="48.89836" lon="1.61311">
        <ele>107</ele>
        <time>2023-06-30T18:53:27Z</time>
      </trkpt>
      <trkpt lat="48.89853" lon="1.61322">
        <ele>108</ele>
        <time>2023-06-30T18:53:52Z</time>
      </trkpt>
      <trkpt lat="48.89866" lon="1.61326">
        <ele>108</ele>
        <time>2023-06-30T18:54:10Z</time>
      </trkpt>
      <trkpt lat="48.89927" lon="1.61332">
        <ele>110</ele>
        <time>2023-06-30T18:55:31Z</time>
      </trkpt>
      <trkpt lat="48.90016" lon="1.61329">
        <ele>115</ele>
        <time>2023-06-30T18:57:30Z</time>
      </trkpt>
      <trkpt lat="48.90016" lon="1.61331">
        <ele>115</ele>
        <time>2023-06-30T18:57:32Z</time>
      </trkpt>
      <trkpt lat="48.90016" lon="1.61324">
        <ele>115</ele>
        <time>2023-06-30T18:57:38Z</time>
      </trkpt>
      <trkpt lat="48.90117" lon="1.61395">
        <ele>119</ele>
        <time>2023-06-30T19:00:06Z</time>
      </trkpt>
      <trkpt lat="48.90132" lon="1.61416">
        <ele>120</ele>
        <time>2023-06-30T19:00:34Z</time>
      </trkpt>
      <trkpt lat="48.90164" lon="1.61482">
        <ele>121</ele>
        <time>2023-06-30T19:01:45Z</time>
      </trkpt>
      <trkpt lat="48.90187" lon="1.61532">
        <ele>122</ele>
        <time>2023-06-30T19:02:39Z</time>
      </trkpt>
      <trkpt lat="48.902" lon="1.61571">
        <ele>123</ele>
        <time>2023-06-30T19:03:17Z</time>
      </trkpt>
      <trkpt lat="48.90223" lon="1.61682">
        <ele>126</ele>
        <time>2023-06-30T19:04:59Z</time>
      </trkpt>
      <trkpt lat="48.90229" lon="1.61749">
        <ele>127</ele>
        <time>2023-06-30T19:05:59Z</time>
      </trkpt>
      <trkpt lat="48.90229" lon="1.61829">
        <ele>129</ele>
        <time>2023-06-30T19:07:09Z</time>
      </trkpt>
      <trkpt lat="48.90212" lon="1.61918">
        <ele>129</ele>
        <time>2023-06-30T19:08:30Z</time>
      </trkpt>
      <trkpt lat="48.90259" lon="1.61949">
        <ele>130</ele>
        <time>2023-06-30T19:09:39Z</time>
      </trkpt>
      <trkpt lat="48.90293" lon="1.61996">
        <ele>130</ele>
        <time>2023-06-30T19:10:40Z</time>
      </trkpt>
      <trkpt lat="48.90336" lon="1.6204">
        <ele>131</ele>
        <time>2023-06-30T19:11:49Z</time>
      </trkpt>
      <trkpt lat="48.90354" lon="1.6208">
        <ele>131</ele>
        <time>2023-06-30T19:12:32Z</time>
      </trkpt>
      <trkpt lat="48.90367" lon="1.62101">
        <ele>131</ele>
        <time>2023-06-30T19:12:57Z</time>
      </trkpt>
      <trkpt lat="48.90419" lon="1.62128">
        <ele>131</ele>
        <time>2023-06-30T19:14:10Z</time>
      </trkpt>
      <trkpt lat="48.90488" lon="1.62173">
        <ele>131</ele>
        <time>2023-06-30T19:15:50Z</time>
      </trkpt>
      <trkpt lat="48.90489" lon="1.62173">
        <ele>131</ele>
        <time>2023-06-30T19:15:52Z</time>
      </trkpt>
      <trkpt lat="48.9048" lon="1.62237">
        <ele>130</ele>
        <time>2023-06-30T19:16:49Z</time>
      </trkpt>
      <trkpt lat="48.90456" lon="1.62371">
        <ele>130</ele>
        <time>2023-06-30T19:18:51Z</time>
      </trkpt>
      <trkpt lat="48.90444" lon="1.62456">
        <ele>130</ele>
        <time>2023-06-30T19:20:07Z</time>
      </trkpt>
      <trkpt lat="48.90418" lon="1.62724">
        <ele>129</ele>
        <time>2023-06-30T19:24:05Z</time>
      </trkpt>
      <trkpt lat="48.90408" lon="1.62801">
        <ele>128</ele>
        <time>2023-06-30T19:25:14Z</time>
      </trkpt>
      <trkpt lat="48.90361" lon="1.63022">
        <ele>128</ele>
        <time>2023-06-30T19:28:37Z</time>
      </trkpt>
      <trkpt lat="48.9034" lon="1.63155">
        <ele>126</ele>
        <time>2023-06-30T19:30:37Z</time>
      </trkpt>
      <trkpt lat="48.90336" lon="1.63218">
        <ele>127</ele>
        <time>2023-06-30T19:31:33Z</time>
      </trkpt>
      <trkpt lat="48.90336" lon="1.63274">
        <ele>127</ele>
        <time>2023-06-30T19:32:22Z</time>
      </trkpt>
      <trkpt lat="48.9034" lon="1.63426">
        <ele>126</ele>
        <time>2023-06-30T19:34:36Z</time>
      </trkpt>
      <trkpt lat="48.90346" lon="1.63473">
        <ele>126</ele>
        <time>2023-06-30T19:35:18Z</time>
      </trkpt>
      <trkpt lat="48.90352" lon="1.63511">
        <ele>126</ele>
        <time>2023-06-30T19:35:52Z</time>
      </trkpt>
      <trkpt lat="48.90365" lon="1.63563">
        <ele>125</ele>
        <time>2023-06-30T19:36:41Z</time>
      </trkpt>
      <trkpt lat="48.90383" lon="1.63615">
        <ele>124</ele>
        <time>2023-06-30T19:37:32Z</time>
      </trkpt>
      <trkpt lat="48.90473" lon="1.63811">
        <ele>122</ele>
        <time>2023-06-30T19:41:02Z</time>
      </trkpt>
      <trkpt lat="48.90484" lon="1.63849">
        <ele>121</ele>
        <time>2023-06-30T19:41:38Z</time>
      </trkpt>
      <trkpt lat="48.905" lon="1.63909">
        <ele>120</ele>
        <time>2023-06-30T19:42:35Z</time>
      </trkpt>
      <trkpt lat="48.90511" lon="1.63961">
        <ele>119</ele>
        <time>2023-06-30T19:43:23Z</time>
      </trkpt>
      <trkpt lat="48.90518" lon="1.64007">
        <ele>119</ele>
        <time>2023-06-30T19:44:04Z</time>
      </trkpt>
      <trkpt lat="48.9052" lon="1.64051">
        <ele>118</ele>
        <time>2023-06-30T19:44:43Z</time>
      </trkpt>
      <trkpt lat="48.90518" lon="1.64078">
        <ele>117</ele>
        <time>2023-06-30T19:45:07Z</time>
      </trkpt>
      <trkpt lat="48.90484" lon="1.64479">
        <ele>115</ele>
        <time>2023-06-30T19:51:02Z</time>
      </trkpt>
      <trkpt lat="48.90485" lon="1.64515">
        <ele>114</ele>
        <time>2023-06-30T19:51:33Z</time>
      </trkpt>
      <trkpt lat="48.90623" lon="1.64635">
        <ele>108</ele>
        <time>2023-06-30T19:55:05Z</time>
      </trkpt>
      <trkpt lat="48.90622" lon="1.6464">
        <ele>108</ele>
        <time>2023-06-30T19:55:10Z</time>
      </trkpt>
      <trkpt lat="48.90614" lon="1.64676">
        <ele>108</ele>
        <time>2023-06-30T19:55:43Z</time>
      </trkpt>
      <trkpt lat="48.90557" lon="1.64811">
        <ele>107</ele>
        <time>2023-06-30T19:58:04Z</time>
      </trkpt>
      <trkpt lat="48.90447" lon="1.6506">
        <ele>106</ele>
        <time>2023-06-30T20:02:27Z</time>
      </trkpt>
      <trkpt lat="48.9044" lon="1.65097">
        <ele>105</ele>
        <time>2023-06-30T20:03:01Z</time>
      </trkpt>
      <trkpt lat="48.90439" lon="1.65141">
        <ele>104</ele>
        <time>2023-06-30T20:03:40Z</time>
      </trkpt>
      <trkpt lat="48.90425" lon="1.65224">
        <ele>102</ele>
        <time>2023-06-30T20:04:55Z</time>
      </trkpt>
      <trkpt lat="48.90407" lon="1.65267">
        <ele>103</ele>
        <time>2023-06-30T20:05:39Z</time>
      </trkpt>
      <trkpt lat="48.9041" lon="1.65321">
        <ele>104</ele>
        <time>2023-06-30T20:06:27Z</time>
      </trkpt>
      <trkpt lat="48.9038" lon="1.65448">
        <ele>108</ele>
        <time>2023-06-30T20:08:25Z</time>
      </trkpt>
      <trkpt lat="48.9036" lon="1.655">
        <ele>109</ele>
        <time>2023-06-30T20:09:18Z</time>
      </trkpt>
      <trkpt lat="48.90332" lon="1.65566">
        <ele>106</ele>
        <time>2023-06-30T20:10:27Z</time>
      </trkpt>
      <trkpt lat="48.90321" lon="1.65609">
        <ele>106</ele>
        <time>2023-06-30T20:11:08Z</time>
      </trkpt>
      <trkpt lat="48.90321" lon="1.65612">
        <ele>106</ele>
        <time>2023-06-30T20:11:10Z</time>
      </trkpt>
      <trkpt lat="48.90321" lon="1.65609">
        <ele>106</ele>
        <time>2023-06-30T20:11:13Z</time>
      </trkpt>
      <trkpt lat="48.90302" lon="1.65627">
        <ele>106</ele>
        <time>2023-06-30T20:11:43Z</time>
      </trkpt>
      <trkpt lat="48.90242" lon="1.6567">
        <ele>106</ele>
        <time>2023-06-30T20:13:11Z</time>
      </trkpt>
      <trkpt lat="48.9019" lon="1.65705">
        <ele>106</ele>
        <time>2023-06-30T20:14:27Z</time>
      </trkpt>
      <trkpt lat="48.90153" lon="1.65728">
        <ele>106</ele>
        <time>2023-06-30T20:15:20Z</time>
      </trkpt>
      <trkpt lat="48.90116" lon="1.65745">
        <ele>106</ele>
        <time>2023-06-30T20:16:12Z</time>
      </trkpt>
      <trkpt lat="48.90058" lon="1.65765">
        <ele>106</ele>
        <time>2023-06-30T20:17:31Z</time>
      </trkpt>
      <trkpt lat="48.90034" lon="1.65771">
        <ele>107</ele>
        <time>2023-06-30T20:18:04Z</time>
      </trkpt>
      <trkpt lat="48.89961" lon="1.65774">
        <ele>107</ele>
        <time>2023-06-30T20:19:41Z</time>
      </trkpt>
      <trkpt lat="48.8989" lon="1.65763">
        <ele>107</ele>
        <time>2023-06-30T20:21:16Z</time>
      </trkpt>
      <trkpt lat="48.8977" lon="1.65763">
        <ele>107</ele>
        <time>2023-06-30T20:23:57Z</time>
      </trkpt>
      <trkpt lat="48.8974" lon="1.65769">
        <ele>106</ele>
        <time>2023-06-30T20:24:37Z</time>
      </trkpt>
      <trkpt lat="48.89725" lon="1.65774">
        <ele>106</ele>
        <time>2023-06-30T20:24:57Z</time>
      </trkpt>
      <trkpt lat="48.8971" lon="1.65786">
        <ele>105</ele>
        <time>2023-06-30T20:25:20Z</time>
      </trkpt>
      <trkpt lat="48.89693" lon="1.65804">
        <ele>104</ele>
        <time>2023-06-30T20:25:48Z</time>
      </trkpt>
      <trkpt lat="48.89633" lon="1.65874">
        <ele>100</ele>
        <time>2023-06-30T20:27:29Z</time>
      </trkpt>
      <trkpt lat="48.89567" lon="1.65941">
        <ele>94</ele>
        <time>2023-06-30T20:29:15Z</time>
      </trkpt>
      <trkpt lat="48.89558" lon="1.65958">
        <ele>93</ele>
        <time>2023-06-30T20:29:34Z</time>
      </trkpt>
      <trkpt lat="48.89552" lon="1.65973">
        <ele>92</ele>
        <time>2023-06-30T20:29:49Z</time>
      </trkpt>
      <trkpt lat="48.89548" lon="1.66003">
        <ele>90</ele>
        <time>2023-06-30T20:30:16Z</time>
      </trkpt>
      <trkpt lat="48.89543" lon="1.66036">
        <ele>88</ele>
        <time>2023-06-30T20:30:46Z</time>
      </trkpt>
      <trkpt lat="48.89532" lon="1.66057">
        <ele>86</ele>
        <time>2023-06-30T20:31:09Z</time>
      </trkpt>
      <trkpt lat="48.89522" lon="1.66068">
        <ele>84</ele>
        <time>2023-06-30T20:31:26Z</time>
      </trkpt>
      <trkpt lat="48.89506" lon="1.66054">
        <ele>82</ele>
        <time>2023-06-30T20:31:50Z</time>
      </trkpt>
      <trkpt lat="48.89492" lon="1.66034">
        <ele>80</ele>
        <time>2023-06-30T20:32:16Z</time>
      </trkpt>
      <trkpt lat="48.89456" lon="1.65952">
        <ele>76</ele>
        <time>2023-06-30T20:33:42Z</time>
      </trkpt>
      <trkpt lat="48.89446" lon="1.65913">
        <ele>74</ele>
        <time>2023-06-30T20:34:19Z</time>
      </trkpt>
      <trkpt lat="48.89434" lon="1.65916">
        <ele>72</ele>
        <time>2023-06-30T20:34:35Z</time>
      </trkpt>
      <trkpt lat="48.89426" lon="1.65913">
        <ele>70</ele>
        <time>2023-06-30T20:34:46Z</time>
      </trkpt>
      <trkpt lat="48.89402" lon="1.65921">
        <ele>67</ele>
        <time>2023-06-30T20:35:19Z</time>
      </trkpt>
      <trkpt lat="48.89395" lon="1.65904">
        <ele>67</ele>
        <time>2023-06-30T20:35:37Z</time>
      </trkpt>
      <trkpt lat="48.8939" lon="1.65895">
        <ele>67</ele>
        <time>2023-06-30T20:35:47Z</time>
      </trkpt>
      <trkpt lat="48.89389" lon="1.65898">
        <ele>67</ele>
        <time>2023-06-30T20:35:50Z</time>
      </trkpt>
    </trkseg>
  </trk>
</gpx>